Rolla, Arkansas
Current Conditions -  °F | °C
As of 8:53 AM on Friday 31 Oct 2014 (Local Time) from KHOT Reporting Station
Clear Clear  
Wind Chill: 56°   Ceiling: Unl
Heat Index: 56°   Visibility: 10mi
Dew Point: 42°   Wind: 10mph
Humidity: 60%   Direction: 340°NNW
Pressure: 30.2"   Gusts: NA
Location:  34.3189°N, 92.8629°W
Report Text: KHOT 311353Z AUTO 34009KT 300V360 10SM CLR 13/06 A3020 RMK AO2 SLP225 T01330056
Loading
Personal Weather Stations






























Interactive Weather Map
Tropical Storm Tracking
New forecast layout! Learn more

10-Day Weather Forecast

Advertisements
Track Severe Weather on mobile